Terminal Aerodrome Forecast
Issued by NWS

Home | Current Version | Previous Version | Text Only | Print | Product List | Glossary On
Versions: 1 2 3 4 5 6 7 8 9 10 11 12 13 14 15 16 17
765
FTUS43 KJKL 250520
TAFSME
TAF
KSME 250520Z 2506/2606 00000KT P6SM FEW050 FEW250
     FM251000 00000KT 5SM BR FEW045 FEW250
     FM251300 22003KT P6SM FEW030 SCT200
     FM251800 26005KT P6SM VCTS SCT045CB BKN200=

USA.gov is the U.S. government's official web portal to all federal, state and local government web resources and services.